Time;durP1;ratioP1;P1;durP2;ratioP2;P2;SDS_P1;SDS_P2;PMS_P1;PMS_P2;Temp;Humidity;BMP_temperature;BMP_pressure;BME280_temperature;BME280_humidity;BME280_pressure;Samples;Min_cycle;Max_cycle;Signal;HPM_P1;HPM_P2
2022/09/01 00:01:49;;;;;;;3.90;3.60;;;;;;;17.84;58.42;99134.69;4881985;29;20045;-69
2022/09/01 00:04:19;;;;;;;4.18;3.88;;;;;;;17.78;58.40;99143.63;4868206;29;20051;-68
2022/09/01 00:06:47;;;;;;;4.45;4.15;;;;;;;17.72;58.48;99140.00;4881406;29;20045;-68
2022/09/01 00:09:17;;;;;;;4.63;4.22;;;;;;;17.67;58.43;99134.50;4883039;29;20053;-70
2022/09/01 00:11:48;;;;;;;4.47;4.07;;;;;;;17.64;58.74;99140.31;4882596;29;20041;-70
2022/09/01 00:14:18;;;;;;;4.43;4.07;;;;;;;17.58;58.94;99134.03;4882061;29;20057;-70
2022/09/01 00:17:00;;;;;;;4.22;3.92;;;;;;;17.55;58.98;99137.19;4883030;29;20078;-70
2022/09/01 00:19:28;;;;;;;4.40;4.10;;;;;;;17.53;59.12;99139.25;4884750;29;20049;-70
2022/09/01 00:21:55;;;;;;;4.30;3.90;;;;;;;17.50;59.14;99138.88;4883991;29;20061;-68
2022/09/01 00:24:24;;;;;;;4.50;4.10;;;;;;;17.49;58.92;99140.75;4882681;29;20057;-69
2022/09/01 00:26:52;;;;;;;4.60;4.20;;;;;;;17.47;59.03;99148.19;4883852;29;20158;-68
2022/09/01 00:29:19;;;;;;;4.63;4.20;;;;;;;17.47;59.16;99139.34;4882950;29;20078;-68
2022/09/01 00:31:46;;;;;;;4.00;3.70;;;;;;;17.46;59.08;99132.38;4882728;29;20056;-69
2022/09/01 00:34:13;;;;;;;4.32;3.92;;;;;;;17.47;59.41;99134.00;4875619;29;20069;-69
2022/09/01 00:36:40;;;;;;;4.10;3.80;;;;;;;17.46;59.10;99130.50;4883946;29;20052;-68
2022/09/01 00:39:08;;;;;;;4.22;3.85;;;;;;;17.45;59.39;99126.22;4882879;29;20076;-70
2022/09/01 00:41:38;;;;;;;4.97;4.20;;;;;;;17.43;58.80;99122.13;4883952;29;20135;-69
2022/09/01 00:44:10;;;;;;;4.45;4.05;;;;;;;17.38;59.24;99125.50;4883073;29;20088;-69
2022/09/01 00:46:41;;;;;;;4.32;3.92;;;;;;;17.38;59.23;99130.84;4865686;29;20049;-68
2022/09/01 00:49:33;;;;;;;3.70;3.40;;;;;;;17.37;59.30;99125.75;4866118;29;20131;-68
2022/09/01 00:52:14;;;;;;;4.20;3.90;;;;;;;17.34;59.10;99127.81;4881528;29;20132;-68
2022/09/01 00:54:47;;;;;;;4.00;3.70;;;;;;;17.31;59.39;99128.28;4881273;29;20037;-68
2022/09/01 00:57:15;;;;;;;4.10;3.80;;;;;;;17.27;59.25;99129.78;4880921;29;20045;-68
2022/09/01 00:59:53;;;;;;;4.25;3.90;;;;;;;17.22;59.52;99132.31;4879918;29;20555;-68
2022/09/01 01:02:20;;;;;;;3.92;3.63;;;;;;;17.17;59.63;99121.50;4875520;29;20144;-68
2022/09/01 01:04:47;;;;;;;4.25;3.75;;;;;;;17.13;59.83;99120.31;4878123;29;20105;-67
2022/09/01 01:07:15;;;;;;;4.32;3.92;;;;;;;17.09;60.07;99121.81;4879496;29;20053;-68
2022/09/01 01:09:44;;;;;;;3.80;3.50;;;;;;;17.05;59.91;99121.44;4880817;29;20490;-69
2022/09/01 01:12:17;;;;;;;3.03;2.80;;;;;;;16.98;60.22;99122.56;4880867;29;20049;-69
2022/09/01 01:14:48;;;;;;;3.30;3.00;;;;;;;16.89;60.75;99119.41;4881245;29;20045;-69
2022/09/01 01:17:21;;;;;;;2.97;2.67;;;;;;;16.83;60.38;99118.47;4880506;29;20053;-67
2022/09/01 01:23:04;;;;;;;3.40;3.20;;;;;;;16.72;60.97;99115.72;4880600;29;20049;-68
2022/09/01 01:25:45;;;;;;;3.35;3.15;;;;;;;16.68;60.94;99119.88;4879268;29;20114;-69
2022/09/01 01:28:21;;;;;;;3.55;3.25;;;;;;;16.66;61.14;99122.75;4878956;29;20137;-70
2022/09/01 01:30:54;;;;;;;3.53;3.22;;;;;;;16.63;61.55;99115.19;4878710;29;20057;-67
2022/09/01 01:33:25;;;;;;;3.80;3.50;;;;;;;16.64;61.26;99121.34;4878277;29;20116;-68
2022/09/01 01:35:56;;;;;;;3.85;3.55;;;;;;;16.61;61.19;99114.59;4863445;29;20076;-69
2022/09/01 01:38:26;;;;;;;3.23;2.93;;;;;;;16.57;61.48;99124.94;4880425;29;20043;-69
2022/09/01 01:40:55;;;;;;;2.80;2.60;;;;;;;16.54;61.77;99113.88;4879182;29;20049;-69
2022/09/01 01:43:25;;;;;;;2.65;2.45;;;;;;;16.52;61.87;99119.44;4879015;29;20080;-69
2022/09/01 01:45:57;;;;;;;3.15;2.95;;;;;;;16.55;61.84;99120.84;4863564;29;20081;-68
2022/09/01 01:48:33;;;;;;;2.58;2.38;;;;;;;16.55;61.56;99118.19;4879659;29;20101;-68
2022/09/01 01:51:00;;;;;;;3.20;2.90;;;;;;;16.55;61.69;99126.19;4879660;29;20049;-68
2022/09/01 01:53:28;;;;;;;3.22;2.50;;;;;;;16.53;62.06;99128.25;4879131;29;20525;-68
2022/09/01 01:55:57;;;;;;;3.42;3.13;;;;;;;16.55;61.46;99126.19;4878923;29;20048;-68
2022/09/01 01:58:27;;;;;;;3.00;2.70;;;;;;;16.56;62.06;99128.63;4880404;29;20053;-68
2022/09/01 02:00:55;;;;;;;3.47;3.17;;;;;;;16.58;61.89;99123.06;4865186;29;20057;-67
2022/09/01 02:03:25;;;;;;;3.08;2.78;;;;;;;16.57;61.82;99127.59;4872200;29;20136;-68
2022/09/01 02:05:53;;;;;;;3.28;2.97;;;;;;;16.55;61.88;99127.00;4880241;29;20076;-67
2022/09/01 02:08:24;;;;;;;3.10;2.90;;;;;;;16.51;61.65;99131.16;4880032;29;20089;-68
2022/09/01 02:10:54;;;;;;;4.20;3.80;;;;;;;16.48;61.83;99128.09;4882058;29;20037;-68
2022/09/01 02:13:29;;;;;;;6.82;5.90;;;;;;;16.45;62.31;99124.03;4881601;29;20113;-68
2022/09/01 02:16:06;;;;;;;4.90;4.40;;;;;;;16.44;62.42;99119.72;4881503;29;20136;-70
2022/09/01 02:18:37;;;;;;;5.43;4.43;;;;;;;16.43;62.09;99123.44;4864709;29;20156;-69
2022/09/01 02:21:08;;;;;;;3.88;3.55;;;;;;;16.38;62.27;99120.63;4880167;29;20053;-69
2022/09/01 02:23:40;;;;;;;3.40;3.10;;;;;;;16.33;62.23;99131.16;4880176;29;20099;-67
2022/09/01 02:26:10;;;;;;;3.35;3.05;;;;;;;16.28;62.45;99120.31;4881340;29;20049;-68
2022/09/01 02:28:48;;;;;;;2.70;2.50;;;;;;;16.27;62.53;99126.69;4865757;29;20071;-69
2022/09/01 02:31:26;;;;;;;2.90;2.65;;;;;;;16.27;62.38;99122.16;4882728;29;20074;-68
2022/09/01 02:33:54;;;;;;;3.28;3.03;;;;;;;16.25;62.57;99123.44;4876560;29;20045;-67
2022/09/01 02:36:21;;;;;;;3.30;3.00;;;;;;;16.21;62.54;99119.59;4881868;29;20113;-69
2022/09/01 02:38:48;;;;;;;2.83;2.63;;;;;;;16.16;62.54;99122.88;4880672;29;20048;-69
2022/09/01 02:41:22;;;;;;;2.80;2.60;;;;;;;16.14;62.87;99122.31;4864466;29;20056;-69
2022/09/01 02:43:49;;;;;;;3.40;3.10;;;;;;;16.13;62.95;99112.69;4878282;29;20049;-68
2022/09/01 02:46:17;;;;;;;3.00;2.60;;;;;;;16.13;62.97;99118.03;4877406;29;20049;-69
2022/09/01 02:48:44;;;;;;;3.40;3.10;;;;;;;16.14;62.45;99113.50;4879298;29;20074;-69
2022/09/01 02:51:16;;;;;;;3.22;2.92;;;;;;;16.09;62.52;99119.50;4862738;29;20045;-68
2022/09/01 02:53:46;;;;;;;3.17;2.88;;;;;;;16.01;62.75;99119.78;4878379;29;20069;-68
2022/09/01 02:56:14;;;;;;;3.28;2.97;;;;;;;15.96;62.66;99122.28;4878325;29;20049;-69
2022/09/01 02:58:46;;;;;;;3.83;3.47;;;;;;;15.93;62.68;99128.88;4884177;29;20084;-69
2022/09/01 03:01:21;;;;;;;4.45;4.05;;;;;;;15.89;62.56;99121.53;4884400;29;20063;-69
2022/09/01 03:03:49;;;;;;;4.32;3.92;;;;;;;15.84;62.91;99127.53;4876104;29;20136;-69
2022/09/01 03:06:18;;;;;;;3.70;3.40;;;;;;;15.78;62.93;99125.72;4883045;29;20057;-69
2022/09/01 03:08:46;;;;;;;3.35;3.05;;;;;;;15.73;63.07;99120.25;4883869;29;20080;-69
2022/09/01 03:11:13;;;;;;;3.83;3.53;;;;;;;15.68;63.45;99118.22;4868870;29;20143;-69
2022/09/01 03:13:40;;;;;;;4.72;4.20;;;;;;;15.63;63.69;99115.34;4882788;29;20068;-69
2022/09/01 03:16:08;;;;;;;3.95;3.58;;;;;;;15.56;64.00;99119.94;4882705;29;20089;-69
2022/09/01 03:18:36;;;;;;;3.80;3.50;;;;;;;15.51;64.11;99117.09;4882454;29;20139;-69
2022/09/01 03:21:04;;;;;;;3.35;3.05;;;;;;;15.49;64.39;99114.66;4881894;29;20053;-69
2022/09/01 03:23:32;;;;;;;2.75;2.55;;;;;;;15.49;64.78;99121.84;4881760;29;20513;-69
2022/09/01 03:26:00;;;;;;;2.58;2.38;;;;;;;15.54;64.49;99127.31;4881676;29;20053;-69
2022/09/01 03:28:27;;;;;;;2.30;2.10;;;;;;;15.57;64.33;99127.72;4881242;29;20136;-69
2022/09/01 03:30:56;;;;;;;3.10;2.80;;;;;;;15.60;63.96;99129.13;4881986;29;20045;-69
2022/09/01 03:33:25;;;;;;;2.47;2.28;;;;;;;15.59;64.38;99130.97;4873536;29;20045;-69
2022/09/01 03:35:54;;;;;;;2.28;2.08;;;;;;;15.60;64.19;99131.78;4881314;29;20097;-69
2022/09/01 03:38:22;;;;;;;3.00;2.80;;;;;;;15.67;64.55;99129.09;4881980;29;20132;-70
2022/09/01 03:40:59;;;;;;;2.60;2.40;;;;;;;15.73;64.08;99129.03;4881804;29;20055;-70
2022/09/01 03:43:29;;;;;;;3.05;2.85;;;;;;;15.75;63.50;99129.63;4881546;29;20049;-70
2022/09/01 03:46:02;;;;;;;2.72;2.53;;;;;;;15.75;64.06;99128.81;4881670;29;20060;-70
2022/09/01 03:48:30;;;;;;;3.40;3.10;;;;;;;15.75;63.67;99131.47;4866454;29;20105;-70
2022/09/01 03:51:01;;;;;;;3.72;3.42;;;;;;;15.74;63.21;99127.19;4882532;29;20060;-70
2022/09/01 03:53:36;;;;;;;4.65;3.90;;;;;;;15.72;63.60;99127.41;4882972;29;20102;-69
2022/09/01 03:56:04;;;;;;;4.18;3.88;;;;;;;15.70;63.30;99124.16;4881067;29;20057;-70
2022/09/01 03:58:32;;;;;;;4.43;4.03;;;;;;;15.74;63.89;99122.69;4880720;29;20057;-69
2022/09/01 04:03:40;;;;;;;5.15;4.38;;;;;;;15.85;63.50;99124.63;4866274;29;20049;-68
2022/09/01 04:06:08;;;;;;;4.82;4.30;;;;;;;15.88;63.11;99125.22;4887127;29;20057;-68
2022/09/01 04:08:35;;;;;;;4.28;3.88;;;;;;;15.91;63.16;99125.59;4894166;29;20069;-68
2022/09/01 04:11:09;;;;;;;4.18;3.83;;;;;;;15.96;63.09;99122.28;4879743;29;20045;-68
2022/09/01 04:13:38;;;;;;;4.40;4.03;;;;;;;15.98;62.51;99122.88;4876433;29;20045;-69
2022/09/01 04:18:03;;;;;;;3.80;3.50;;;;;;;16.01;62.49;99127.78;4845829;29;20109;-69
2022/09/01 04:18:55;;;;;;;5.05;3.70;;;;;;;16.02;62.26;99129.41;4861932;29;20041;-69
2022/09/01 04:21:21;;;;;;;4.68;4.00;;;;;;;16.05;62.20;99121.78;4860975;29;20127;-69
2022/09/01 04:23:48;;;;;;;4.53;4.13;;;;;;;16.05;62.62;99124.47;4860858;29;20116;-69
2022/09/01 04:26:19;;;;;;;4.10;3.58;;;;;;;16.04;62.44;99127.31;4861576;29;20048;-70
2022/09/01 04:28:48;;;;;;;4.07;3.78;;;;;;;16.05;61.91;99112.97;4862185;29;20052;-70
2022/09/01 04:31:18;;;;;;;3.65;3.35;;;;;;;16.04;62.37;99120.16;4861920;29;20174;-70
2022/09/01 04:33:51;;;;;;;3.85;3.55;;;;;;;16.06;61.80;99115.41;4865871;29;20042;-69
2022/09/01 04:36:25;;;;;;;4.22;3.72;;;;;;;16.03;61.75;99118.50;4876392;29;20046;-68
2022/09/01 04:38:58;;;;;;;3.92;3.40;;;;;;;16.01;62.13;99112.59;4861999;29;20056;-69
2022/09/01 04:41:29;;;;;;;3.60;3.30;;;;;;;16.03;62.03;99113.19;4875952;29;20102;-68
2022/09/01 04:44:03;;;;;;;3.55;3.25;;;;;;;16.07;62.25;99110.88;4861064;29;20045;-67
2022/09/01 04:46:37;;;;;;;3.97;3.53;;;;;;;16.05;62.21;99107.66;4875754;29;20049;-68
2022/09/01 04:49:06;;;;;;;3.45;3.22;;;;;;;16.11;62.33;99109.41;4875781;29;20064;-69
2022/09/01 04:51:40;;;;;;;3.50;3.20;;;;;;;16.20;62.01;99102.75;4875851;29;20068;-68
2022/09/01 04:54:11;;;;;;;3.70;3.35;;;;;;;16.29;61.68;99103.28;4845384;29;20101;-71
2022/09/01 04:56:43;;;;;;;3.90;3.50;;;;;;;16.35;61.92;99105.06;4875344;29;20082;-68
2022/09/01 04:59:13;;;;;;;3.10;2.80;;;;;;;16.42;61.52;99102.31;4859902;29;20139;-69
2022/09/01 05:01:45;;;;;;;3.53;3.22;;;;;;;16.43;60.93;99109.28;4875271;29;20093;-69
2022/09/01 05:04:16;;;;;;;2.80;2.60;;;;;;;16.45;61.30;99108.03;4852344;29;20180;-69
2022/09/01 05:06:48;;;;;;;3.35;2.72;;;;;;;16.49;61.35;99109.22;4859814;29;20521;-69
2022/09/01 05:09:17;;;;;;;2.60;2.40;;;;;;;16.56;60.91;99109.13;4860049;29;20057;-69
2022/09/01 05:11:56;;;;;;;2.65;2.45;;;;;;;16.58;61.13;99107.88;4846183;29;20471;-68
2022/09/01 05:14:27;;;;;;;2.70;2.50;;;;;;;16.58;60.97;99109.72;4860085;29;20052;-68
2022/09/01 05:16:57;;;;;;;2.47;2.28;;;;;;;16.60;61.01;99112.97;4859454;29;20053;-68
2022/09/01 05:19:28;;;;;;;2.78;2.20;;;;;;;16.62;60.70;99110.09;4859937;29;20105;-69
2022/09/01 05:21:58;;;;;;;3.05;2.80;;;;;;;16.61;60.74;99106.59;4844904;29;20136;-68
2022/09/01 05:24:29;;;;;;;2.45;2.25;;;;;;;16.62;60.39;99110.91;4860034;29;20152;-69
2022/09/01 05:26:59;;;;;;;2.70;2.50;;;;;;;16.65;60.60;99110.44;4859714;29;20053;-68
2022/09/01 05:29:28;;;;;;;3.08;2.63;;;;;;;16.68;60.24;99110.00;4859805;29;20498;-69
2022/09/01 05:31:57;;;;;;;2.00;1.90;;;;;;;16.72;60.16;99113.03;4859916;29;20052;-69
2022/09/01 05:34:25;;;;;;;3.40;2.10;;;;;;;16.74;60.52;99114.47;4852498;29;20066;-68
2022/09/01 05:36:56;;;;;;;1.80;1.70;;;;;;;16.82;60.31;99122.19;4875161;29;20071;-68
2022/09/01 05:39:25;;;;;;;1.98;1.58;;;;;;;16.93;60.25;99117.91;4875102;29;20144;-69
2022/09/01 05:41:53;;;;;;;2.65;2.45;;;;;;;16.97;59.65;99121.75;4859688;29;20435;-68
2022/09/01 05:44:24;;;;;;;2.92;2.63;;;;;;;16.98;59.40;99123.41;4859515;29;20113;-69
2022/09/01 05:46:54;;;;;;;2.85;2.00;;;;;;;16.97;59.42;99119.09;4875004;29;20057;-71
2022/09/01 05:49:21;;;;;;;2.40;2.20;;;;;;;17.00;59.56;99115.97;4859631;29;20074;-69
2022/09/01 05:51:51;;;;;;;2.47;2.28;;;;;;;17.04;59.14;99127.84;4874653;29;20140;-68
2022/09/01 05:54:26;;;;;;;3.92;2.55;;;;;;;17.04;58.87;99117.16;4874665;29;20117;-70
2022/09/01 05:56:56;;;;;;;2.58;2.38;;;;;;;17.04;58.88;99121.69;4844010;29;20049;-68
2022/09/01 05:59:34;;;;;;;2.33;2.13;;;;;;;17.09;58.83;99121.81;4859302;29;20056;-69
2022/09/01 06:02:09;;;;;;;2.33;2.20;;;;;;;17.16;58.84;99122.53;4874054;29;20413;-69
2022/09/01 06:04:40;;;;;;;2.40;2.20;;;;;;;17.21;58.85;99116.50;4851531;29;20101;-70
2022/09/01 06:07:13;;;;;;;2.75;2.50;;;;;;;17.22;58.42;99116.28;4859335;29;20140;-68
2022/09/01 06:09:52;;;;;;;2.88;2.60;;;;;;;17.18;58.67;99120.44;4859523;29;20057;-68
2022/09/01 06:12:23;;;;;;;2.65;2.33;;;;;;;17.15;58.04;99114.78;4874608;29;20105;-68
2022/09/01 06:14:53;;;;;;;2.35;2.15;;;;;;;17.15;58.15;99117.44;4874451;29;20077;-69
2022/09/01 06:17:23;;;;;;;2.97;2.05;;;;;;;17.19;58.63;99119.44;4858489;29;20258;-68
2022/09/01 06:19:52;;;;;;;3.47;2.10;;;;;;;17.22;58.45;99115.47;4858805;29;20148;-70
2022/09/01 06:22:19;;;;;;;3.00;2.70;;;;;;;17.26;58.28;99113.97;4858627;29;20057;-69
2022/09/01 06:24:47;;;;;;;4.00;2.40;;;;;;;17.31;57.99;99120.28;4858736;29;20125;-68
2022/09/01 06:27:20;;;;;;;5.63;2.05;;;;;;;17.38;57.88;99120.16;4873849;29;20144;-68
2022/09/01 06:29:55;;;;;;;2.63;2.17;;;;;;;17.47;57.88;99131.31;4843609;29;20045;-68
2022/09/01 06:32:24;;;;;;;2.10;1.95;;;;;;;17.56;58.03;99127.28;4873377;29;20050;-68
2022/09/01 06:34:52;;;;;;;2.40;2.20;;;;;;;17.63;57.31;99124.50;4850679;29;20045;-69
2022/09/01 06:37:21;;;;;;;2.28;2.00;;;;;;;17.70;57.10;99131.38;4873577;29;20085;-68
2022/09/01 06:39:56;;;;;;;2.00;1.90;;;;;;;17.75;57.19;99128.03;4858455;29;20518;-69
2022/09/01 06:42:23;;;;;;;2.17;1.90;;;;;;;17.79;56.82;99131.88;4874129;29;20057;-69
2022/09/01 06:44:55;;;;;;;3.25;2.17;;;;;;;17.78;56.70;99119.56;4858770;29;20506;-69
2022/09/01 06:47:23;;;;;;;2.35;2.03;;;;;;;17.81;57.00;99122.59;4858272;29;20506;-69
2022/09/01 06:49:50;;;;;;;2.17;1.90;;;;;;;17.91;56.75;99124.66;4873973;29;20114;-69
2022/09/01 06:52:24;;;;;;;2.03;1.70;;;;;;;18.04;56.87;99137.00;4873880;29;20056;-69
2022/09/01 06:54:52;;;;;;;1.90;1.80;;;;;;;18.16;56.67;99137.00;4858299;29;20042;-69
2022/09/01 06:57:21;;;;;;;2.45;2.10;;;;;;;18.25;56.28;99140.97;4859489;29;20093;-69
2022/09/01 07:00:16;;;;;;;2.42;1.90;;;;;;;18.38;56.28;99138.03;4873412;29;20498;-69
2022/09/01 07:02:47;;;;;;;2.47;2.22;;;;;;;18.50;56.23;99133.47;4858027;29;20403;-68
2022/09/01 07:05:33;;;;;;;2.40;2.20;;;;;;;18.56;56.17;99132.50;4841161;29;20060;-70
2022/09/01 07:08:30;;;;;;;2.20;2.05;;;;;;;18.63;55.75;99143.09;4858141;29;20425;-69
2022/09/01 07:11:16;;;;;;;2.30;1.73;;;;;;;18.69;55.83;99139.47;4859509;29;20076;-69
2022/09/01 07:14:05;;;;;;;2.20;1.92;;;;;;;18.80;55.86;99144.00;4858468;29;20509;-68
2022/09/01 07:16:46;;;;;;;2.55;2.17;;;;;;;18.85;55.65;99150.53;4858885;29;20516;-69
2022/09/01 07:19:34;;;;;;;2.17;1.98;;;;;;;18.97;55.50;99152.09;4860788;29;20053;-69
2022/09/01 07:22:16;;;;;;;2.42;2.22;;;;;;;19.07;55.15;99148.00;4875273;29;20067;-69
2022/09/01 07:25:04;;;;;;;2.30;2.10;;;;;;;19.24;54.90;99148.88;4875358;29;20041;-70
2022/09/01 07:27:58;;;;;;;2.00;1.90;;;;;;;19.37;54.46;99150.44;4859522;29;20053;-68
2022/09/01 07:30:27;;;;;;;2.20;2.00;;;;;;;19.49;55.02;99153.84;4860319;29;20129;-69
2022/09/01 07:32:54;;;;;;;2.30;2.03;;;;;;;19.55;54.75;99139.47;4872163;29;20420;-70
2022/09/01 07:35:23;;;;;;;2.35;2.15;;;;;;;19.61;54.90;99141.22;4853700;29;20041;-70
2022/09/01 07:37:51;;;;;;;2.58;2.30;;;;;;;19.69;54.87;99140.81;4858079;29;20073;-69
2022/09/01 07:40:41;;;;;;;2.40;2.20;;;;;;;19.79;54.53;99150.88;4873671;29;20050;-70
2022/09/01 07:43:51;;;;;;;3.67;2.85;;;;;;;19.72;54.35;99147.59;4861935;29;20145;-70
2022/09/01 07:46:36;;;;;;;3.03;2.72;;;;;;;19.68;54.36;99152.63;4862868;29;20057;-70
2022/09/01 07:49:08;;;;;;;3.25;2.97;;;;;;;19.71;55.07;99151.28;4876866;29;20053;-68
2022/09/01 07:51:55;;;;;;;3.17;2.85;;;;;;;19.82;55.17;99163.81;4881969;29;20137;-68
2022/09/01 07:54:25;;;;;;;3.10;2.80;;;;;;;19.94;54.55;99161.88;4855926;29;20053;-69
2022/09/01 07:56:54;;;;;;;2.90;2.70;;;;;;;20.09;54.33;99160.50;4868538;29;20457;-69
2022/09/01 07:59:22;;;;;;;2.92;2.67;;;;;;;20.25;53.81;99165.03;4846294;29;20121;-69
2022/09/01 08:01:55;;;;;;;;;;;;;;;20.29;54.03;99158.09;4861649;29;20454;-69
2022/09/01 08:04:22;;;;;;;2.85;2.65;;;;;;;20.36;53.77;99161.41;4853420;29;20014;-70
2022/09/01 08:06:50;;;;;;;3.60;3.30;;;;;;;20.40;53.61;99159.84;4876614;29;20109;-70
2022/09/01 08:09:17;;;;;;;3.25;2.95;;;;;;;20.36;53.85;99161.41;4877209;29;20132;-70
2022/09/01 08:12:05;;;;;;;3.25;2.95;;;;;;;20.37;53.72;99163.03;4876660;29;20053;-70
2022/09/01 08:14:36;;;;;;;3.35;2.83;;;;;;;20.38;54.06;99161.16;4876381;29;20128;-69
2022/09/01 08:17:04;;;;;;;4.50;3.30;;;;;;;20.45;53.81;99167.16;4860834;29;20088;-69
2022/09/01 08:19:52;;;;;;;3.45;3.15;;;;;;;20.42;53.63;99155.06;4860842;29;20405;-70
2022/09/01 08:22:32;;;;;;;3.00;2.70;;;;;;;20.33;53.95;99155.72;4860888;29;20056;-69
2022/09/01 08:25:07;;;;;;;3.20;3.00;;;;;;;20.29;53.97;99153.53;4876431;29;20136;-70
2022/09/01 08:27:39;;;;;;;4.63;3.95;;;;;;;20.20;54.19;99155.00;4860659;29;20521;-70
2022/09/01 08:30:09;;;;;;;3.47;3.17;;;;;;;20.23;54.39;99156.38;4860733;29;20142;-69
2022/09/01 08:32:36;;;;;;;3.75;3.30;;;;;;;20.22;54.67;99152.09;4860191;29;20463;-69
2022/09/01 08:35:04;;;;;;;4.45;3.20;;;;;;;20.23;54.58;99156.38;4868112;29;20048;-70
2022/09/01 08:37:31;;;;;;;3.35;3.05;;;;;;;20.33;54.56;99151.19;4862298;29;20144;-69
2022/09/01 08:39:58;;;;;;;3.63;3.20;;;;;;;20.41;54.36;99157.97;4876165;29;20144;-69
2022/09/01 08:42:51;;;;;;;3.50;3.20;;;;;;;20.49;54.17;99155.72;4875954;29;20140;-69
2022/09/01 08:45:34;;;;;;;3.97;3.17;;;;;;;20.56;53.75;99163.59;4845316;29;20045;-69
2022/09/01 08:48:21;;;;;;;3.13;2.83;;;;;;;20.66;53.95;99158.34;4875844;29;20049;-69
2022/09/01 08:51:34;;;;;;;3.85;3.17;;;;;;;20.78;53.63;99144.81;4860574;29;20042;-69
2022/09/01 08:54:13;;;;;;;3.33;3.03;;;;;;;20.84;53.54;99153.72;4844980;29;20053;-69
2022/09/01 08:56:44;;;;;;;3.38;3.13;;;;;;;20.94;53.40;99156.50;4860011;29;20058;-70
2022/09/01 08:59:14;;;;;;;3.40;3.10;;;;;;;20.99;52.94;99154.72;4861582;29;20508;-70
2022/09/01 09:02:25;;;;;;;4.95;3.47;;;;;;;21.05;53.03;99160.94;4875730;29;20117;-69
2022/09/01 09:05:03;;;;;;;4.25;3.30;;;;;;;21.02;53.14;99161.44;4852885;29;20077;-70
2022/09/01 09:08:03;;;;;;;3.28;3.00;;;;;;;21.08;52.95;99154.25;4861129;29;20045;-70
2022/09/01 09:10:48;;;;;;;3.70;3.40;;;;;;;21.17;52.74;99158.91;4861422;29;20136;-69
2022/09/01 09:13:29;;;;;;;3.42;3.13;;;;;;;21.35;52.49;99163.19;4861365;29;20281;-69
2022/09/01 09:16:02;;;;;;;3.50;3.20;;;;;;;21.48;52.53;99164.66;4844641;29;20073;-70
2022/09/01 09:18:40;;;;;;;3.25;2.95;;;;;;;21.42;52.14;99162.97;4861083;29;20566;-70
2022/09/01 09:21:28;;;;;;;4.57;3.33;;;;;;;21.40;52.65;99174.00;4859999;29;20133;-70
2022/09/01 09:24:49;;;;;;;3.67;3.38;;;;;;;21.50;51.98;99157.94;4860997;29;20414;-70
2022/09/01 09:27:27;;;;;;;3.40;3.10;;;;;;;21.67;51.69;99160.50;4860922;29;20053;-69
2022/09/01 09:30:11;;;;;;;3.42;2.97;;;;;;;21.72;51.70;99152.50;4861108;29;20051;-69
2022/09/01 09:32:54;;;;;;;3.67;3.22;;;;;;;21.78;51.08;99164.09;4859241;29;20049;-69
2022/09/01 09:35:43;;;;;;;3.35;3.05;;;;;;;21.91;51.11;99158.25;4852910;29;20064;-70
2022/09/01 09:38:17;;;;;;;3.05;2.85;;;;;;;22.11;50.88;99154.91;4860655;29;20063;-70
2022/09/01 09:41:05;;;;;;;4.18;3.58;;;;;;;22.19;50.74;99153.66;4875094;29;20421;-70
2022/09/01 09:43:48;;;;;;;3.08;2.78;;;;;;;22.44;50.06;99142.19;4859225;29;20574;-69
2022/09/01 09:46:30;;;;;;;3.47;3.17;;;;;;;22.68;49.10;99145.28;4860826;29;20078;-69
2022/09/01 09:49:24;;;;;;;3.22;2.90;;;;;;;22.85;48.62;99142.38;4860699;29;20049;-69
2022/09/01 09:52:02;;;;;;;3.50;3.20;;;;;;;22.97;48.79;99140.28;4861288;29;20059;-70
2022/09/01 09:54:31;;;;;;;3.20;2.90;;;;;;;23.11;48.93;99137.91;4874975;29;20516;-71
2022/09/01 09:57:10;;;;;;;2.95;2.75;;;;;;;23.35;48.07;99135.50;4874807;29;20045;-70
2022/09/01 09:59:39;;;;;;;3.45;2.75;;;;;;;23.59;47.90;99133.09;4859322;29;20049;-69
2022/09/01 10:02:25;;;;;;;3.25;2.95;;;;;;;23.64;47.48;99127.72;4860225;29;20045;-69
2022/09/01 10:04:54;;;;;;;3.20;2.90;;;;;;;23.67;47.26;99132.59;4844150;29;20053;-70
2022/09/01 10:07:23;;;;;;;3.17;2.88;;;;;;;23.78;47.26;99118.00;4859471;29;20049;-69
2022/09/01 10:09:51;;;;;;;2.72;2.10;;;;;;;24.01;46.68;99124.75;4860375;29;20053;-69
2022/09/01 10:12:18;;;;;;;2.70;2.50;;;;;;;24.36;45.99;99123.03;4860351;29;20051;-69
2022/09/01 10:14:55;;;;;;;2.88;2.65;;;;;;;24.44;45.05;99112.47;4860304;29;20052;-69
2022/09/01 10:17:37;;;;;;;2.70;2.50;;;;;;;24.55;45.09;99109.75;4859479;29;20140;-70
2022/09/01 10:20:15;;;;;;;3.47;2.60;;;;;;;24.60;44.69;99109.72;4860519;29;20045;-69
2022/09/01 10:22:43;;;;;;;3.17;2.13;;;;;;;24.51;44.78;99116.81;4860195;29;20406;-69
2022/09/01 10:25:15;;;;;;;2.60;2.40;;;;;;;24.40;44.40;99102.50;4860067;29;20045;-69
2022/09/01 10:27:46;;;;;;;3.95;2.65;;;;;;;24.27;43.85;99114.69;4860057;29;20065;-70
2022/09/01 10:30:17;;;;;;;3.28;2.75;;;;;;;24.08;44.83;99105.53;4860208;29;20049;-72
2022/09/01 10:32:54;;;;;;;2.70;2.50;;;;;;;24.06;44.55;99113.94;4859258;29;20491;-69
2022/09/01 10:35:35;;;;;;;3.10;2.50;;;;;;;23.94;44.84;99102.59;4853409;29;20049;-70
2022/09/01 10:38:09;;;;;;;2.45;2.25;;;;;;;23.90;45.19;99099.63;4858602;29;20140;-70
2022/09/01 10:40:45;;;;;;;4.53;2.65;;;;;;;23.93;45.31;99101.81;4860274;29;20050;-70
2022/09/01 10:43:27;;;;;;;2.50;2.30;;;;;;;24.04;44.81;99094.47;4860055;29;20054;-69
2022/09/01 10:45:54;;;;;;;2.90;2.70;;;;;;;24.06;44.99;99099.63;4860035;29;20048;-70
2022/09/01 10:48:33;;;;;;;2.72;2.53;;;;;;;24.13;44.92;99100.16;4859827;29;20113;-69
2022/09/01 10:51:14;;;;;;;2.88;2.42;;;;;;;24.22;44.64;99093.91;4860088;29;20046;-69
2022/09/01 10:53:48;;;;;;;2.20;2.00;;;;;;;24.28;44.66;99094.69;4844043;29;20057;-70
2022/09/01 10:56:49;;;;;;;2.58;2.38;;;;;;;24.40;44.39;99100.59;4859809;29;20125;-69
2022/09/01 10:59:29;;;;;;;2.33;2.10;;;;;;;24.45;44.33;99106.03;4858671;29;20085;-69
2022/09/01 11:02:14;;;;;;;2.60;2.40;;;;;;;24.45;44.26;99097.91;4859420;29;20057;-70
2022/09/01 11:04:57;;;;;;;3.35;2.67;;;;;;;24.26;43.91;99099.56;4850662;29;20120;-70
2022/09/01 11:07:33;;;;;;;2.60;2.40;;;;;;;24.19;44.50;99097.13;4859392;29;20144;-69
2022/09/01 11:10:43;;;;;;;2.60;2.40;;;;;;;24.15;44.18;99098.78;4858529;29;20081;-69
2022/09/01 11:13:32;;;;;;;2.72;2.50;;;;;;;24.12;43.94;99090.41;4859606;29;20050;-69
2022/09/01 11:16:23;;;;;;;2.90;2.70;;;;;;;23.99;44.13;99094.50;4858304;29;20042;-69
2022/09/01 11:19:23;;;;;;;2.05;1.95;;;;;;;24.03;44.49;99082.06;4862378;29;20053;-69
2022/09/01 11:22:14;;;;;;;2.50;2.30;;;;;;;24.05;44.23;99081.81;4863117;29;20472;-70
2022/09/01 11:24:40;;;;;;;2.42;2.22;;;;;;;23.94;44.66;99083.72;4853418;29;20068;-70
2022/09/01 11:27:10;;;;;;;2.80;2.60;;;;;;;23.90;44.32;99094.25;4862847;29;20102;-69
2022/09/01 11:29:55;;;;;;;2.25;2.10;;;;;;;23.93;44.32;99084.78;4862552;29;20408;-69
2022/09/01 11:32:26;;;;;;;2.83;2.60;;;;;;;23.97;44.25;99083.97;4861536;29;20061;-69
2022/09/01 11:34:56;;;;;;;2.90;2.70;;;;;;;24.17;43.98;99082.31;4854183;29;20080;-69
2022/09/01 11:37:24;;;;;;;2.83;2.63;;;;;;;24.27;43.87;99089.56;4863246;29;20049;-69
2022/09/01 11:39:57;;;;;;;2.60;2.40;;;;;;;24.25;43.61;99079.03;4863781;29;20054;-69
2022/09/01 11:42:35;;;;;;;2.47;2.28;;;;;;;24.36;43.59;99077.91;4862822;29;20050;-70
2022/09/01 11:45:20;;;;;;;2.40;2.20;;;;;;;24.37;43.28;99073.31;4862774;29;20485;-70
2022/09/01 11:48:00;;;;;;;2.70;2.50;;;;;;;24.33;43.00;99074.94;4862247;29;20079;-69
2022/09/01 11:50:34;;;;;;;3.20;2.28;;;;;;;24.44;42.97;99077.34;4862740;29;20041;-69
2022/09/01 11:53:05;;;;;;;2.55;2.35;;;;;;;24.45;42.96;99070.88;4861419;29;20067;-69
2022/09/01 11:55:38;;;;;;;2.70;2.28;;;;;;;24.52;42.82;99084.09;4846035;29;20060;-70
2022/09/01 11:58:08;;;;;;;2.20;2.10;;;;;;;24.54;42.60;99071.13;4876515;29;20128;-69
2022/09/01 12:00:41;;;;;;;2.38;2.28;;;;;;;24.41;42.73;99069.00;4861225;29;20471;-70
2022/09/01 12:03:21;;;;;;;2.17;2.08;;;;;;;24.42;42.47;99054.41;4868659;29;20136;-69
2022/09/01 12:06:04;;;;;;;2.92;2.67;;;;;;;24.57;42.54;99051.63;4854619;29;20105;-69
2022/09/01 12:08:34;;;;;;;2.75;2.40;;;;;;;24.90;42.00;99054.69;4862342;29;20065;-70
2022/09/01 12:11:04;;;;;;;4.28;3.13;;;;;;;24.99;41.83;99053.03;4862224;29;20046;-70
2022/09/01 12:13:31;;;;;;;2.70;2.50;;;;;;;24.98;41.59;99055.97;4870484;29;20117;-70